Time;durP1;ratioP1;P1;durP2;ratioP2;P2;SDS_P1;SDS_P2;PMS_P1;PMS_P2;Temp;Humidity;BMP_temperature;BMP_pressure;BME280_temperature;BME280_humidity;BME280_pressure;Samples;Min_cycle;Max_cycle;Signal;HPM_P1;HPM_P2
2023/06/25 00:02:22;;;;;;;11.57;7.72;;;15.50;99.90;;;;;;5119468;27;20160;-27
2023/06/25 00:04:48;;;;;;;9.55;6.95;;;15.40;99.90;;;;;;5137447;27;20134;-27
2023/06/25 00:07:15;;;;;;;11.52;7.22;;;15.40;99.90;;;;;;5119131;27;20130;-27
2023/06/25 00:09:52;;;;;;;13.68;9.45;;;15.40;99.90;;;;;;5118983;27;20373;-27
2023/06/25 00:12:17;;;;;;;13.43;8.65;;;15.40;99.90;;;;;;5137391;27;20058;-27
2023/06/25 00:14:43;;;;;;;12.27;8.20;;;15.50;99.90;;;;;;5137288;27;20043;-27
2023/06/25 00:17:09;;;;;;;11.85;8.93;;;15.50;99.90;;;;;;5119181;27;20388;-27
2023/06/25 00:19:35;;;;;;;10.55;8.45;;;15.50;99.90;;;;;;5118881;27;20039;-27
2023/06/25 00:22:00;;;;;;;15.68;9.63;;;15.60;99.90;;;;;;5137093;27;20100;-27
2023/06/25 00:24:26;;;;;;;12.57;10.27;;;15.60;99.90;;;;;;5137634;27;20047;-27
2023/06/25 00:26:52;;;;;;;14.90;9.70;;;15.60;99.90;;;;;;5136921;27;20039;-27
2023/06/25 00:29:17;;;;;;;16.90;10.70;;;15.60;99.90;;;;;;5136982;27;20121;-27
2023/06/25 00:31:43;;;;;;;13.80;10.77;;;15.60;99.90;;;;;;5118674;27;20397;-27
2023/06/25 00:34:09;;;;;;;12.45;10.07;;;15.60;99.90;;;;;;5136877;27;20078;-27
2023/06/25 00:36:36;;;;;;;15.80;10.60;;;15.60;99.90;;;;;;5085019;27;20051;-27
2023/06/25 00:39:06;;;;;;;17.27;11.90;;;15.60;99.90;;;;;;5118670;27;20047;-27
2023/06/25 00:41:32;;;;;;;16.50;11.32;;;15.60;99.90;;;;;;5118514;27;20130;-26
2023/06/25 00:43:57;;;;;;;10.30;8.05;;;15.50;99.90;;;;;;5119439;27;20122;-27
2023/06/25 00:46:25;;;;;;;10.27;7.90;;;15.40;99.90;;;;;;5119420;27;20094;-28
2023/06/25 00:48:52;;;;;;;9.15;7.40;;;15.40;99.90;;;;;;5118214;27;20046;-26
2023/06/25 00:51:21;;;;;;;11.00;8.05;;;15.30;99.90;;;;;;5136447;27;20047;-26
2023/06/25 00:53:49;;;;;;;12.48;9.10;;;15.40;99.90;;;;;;5137474;27;20051;-27
2023/06/25 00:56:16;;;;;;;9.82;7.78;;;15.20;99.90;;;;;;5100878;27;20064;-26
2023/06/25 00:58:41;;;;;;;12.18;8.57;;;15.20;99.90;;;;;;5136341;27;20484;-26
2023/06/25 01:01:18;;;;;;;8.27;6.63;;;15.10;99.90;;;;;;5137232;27;20057;-26
2023/06/25 01:03:54;;;;;;;7.70;6.65;;;15.00;99.90;;;;;;5136689;27;20039;-27
2023/06/25 01:06:37;;;;;;;10.80;8.20;;;15.00;99.90;;;;;;5119076;27;20468;-27
2023/06/25 01:09:03;;;;;;;5.80;5.05;;;14.90;99.90;;;;;;5118281;27;20468;-26
2023/06/25 01:11:29;;;;;;;5.88;4.75;;;14.90;99.90;;;;;;5117910;27;20130;-27
2023/06/25 01:13:57;;;;;;;4.00;2.35;;;14.70;99.90;;;;;;5136182;27;20528;-26
2023/06/25 01:16:23;;;;;;;2.85;2.33;;;14.70;99.90;;;;;;5101343;27;20266;-26
2023/06/25 01:18:50;;;;;;;3.33;2.63;;;14.70;99.90;;;;;;5136583;27;20552;-26
2023/06/25 01:21:23;;;;;;;4.53;2.95;;;14.50;99.90;;;;;;5135994;27;20078;-26
2023/06/25 01:23:50;;;;;;;4.88;3.47;;;14.50;99.90;;;;;;5136621;27;20039;-26
2023/06/25 01:26:16;;;;;;;3.85;3.40;;;14.50;99.90;;;;;;5135860;27;20054;-26
2023/06/25 01:28:41;;;;;;;4.38;3.55;;;14.40;99.90;;;;;;5136180;27;20039;-26
2023/06/25 01:31:07;;;;;;;9.38;5.57;;;14.40;99.90;;;;;;5083908;27;20035;-26
2023/06/25 01:33:33;;;;;;;9.18;6.20;;;14.30;99.90;;;;;;5117642;27;20384;-26
2023/06/25 01:36:01;;;;;;;8.38;7.03;;;14.40;99.90;;;;;;5135712;27;20096;-26
2023/06/25 01:38:27;;;;;;;16.05;9.75;;;14.40;99.90;;;;;;5135943;27;20493;-27
2023/06/25 01:40:52;;;;;;;15.38;10.60;;;14.50;99.90;;;;;;5117734;27;20047;-26
2023/06/25 01:43:18;;;;;;;13.35;9.70;;;14.60;99.90;;;;;;5117329;27;20511;-26
2023/06/25 01:45:44;;;;;;;12.02;7.80;;;14.60;99.90;;;;;;5135486;27;20050;-26
2023/06/25 01:48:10;;;;;;;5.88;3.88;;;14.60;99.90;;;;;;5135323;27;20046;-26
2023/06/25 01:50:35;;;;;;;14.85;8.85;;;14.60;99.90;;;;;;5135405;27;20075;-26
2023/06/25 01:53:01;;;;;;;13.18;9.80;;;14.50;99.90;;;;;;5135475;27;20047;-26
2023/06/25 01:55:27;;;;;;;19.83;12.82;;;14.60;99.90;;;;;;5135855;27;20051;-26
2023/06/25 01:57:53;;;;;;;19.38;11.68;;;14.60;99.90;;;;;;5135253;27;20096;-26
2023/06/25 02:00:20;;;;;;;17.95;12.50;;;14.70;99.90;;;;;;5135840;27;20353;-26
2023/06/25 02:02:46;;;;;;;17.73;13.10;;;14.80;99.90;;;;;;5117152;27;20039;-26
2023/06/25 02:05:11;;;;;;;27.60;17.10;;;14.80;99.90;;;;;;5135677;27;20476;-27
2023/06/25 02:07:37;;;;;;;24.08;16.08;;;14.90;99.90;;;;;;5135000;27;20075;-26
2023/06/25 02:10:03;;;;;;;26.75;17.20;;;15.00;99.90;;;;;;5134599;27;20047;-26
2023/06/25 02:12:29;;;;;;;27.33;16.88;;;15.10;99.90;;;;;;5135012;27;20043;-26
2023/06/25 02:14:55;;;;;;;22.27;14.77;;;15.10;99.90;;;;;;5134980;27;20188;-26
2023/06/25 02:17:20;;;;;;;24.05;15.80;;;15.10;99.90;;;;;;5134914;27;20058;-26
2023/06/25 02:19:46;;;;;;;24.90;16.90;;;15.20;99.90;;;;;;5135460;27;20046;-26
2023/06/25 02:22:12;;;;;;;28.08;18.88;;;15.20;99.90;;;;;;5116634;27;20147;-26
2023/06/25 02:24:37;;;;;;;23.85;16.95;;;15.30;99.90;;;;;;5134828;27;20369;-26
2023/06/25 02:27:04;;;;;;;29.77;17.88;;;15.40;99.90;;;;;;5135251;27;20039;-26
2023/06/25 02:29:29;;;;;;;29.70;18.70;;;15.40;99.90;;;;;;5135247;27;20047;-26
2023/06/25 02:31:55;;;;;;;25.17;17.05;;;15.40;99.90;;;;;;5135015;27;20054;-26
2023/06/25 02:34:21;;;;;;;27.13;16.42;;;15.50;99.90;;;;;;5135249;27;20484;-26
2023/06/25 02:36:47;;;;;;;27.60;16.77;;;15.50;99.90;;;;;;5134700;27;20046;-26
2023/06/25 02:39:13;;;;;;;22.20;15.63;;;15.50;99.90;;;;;;5134708;27;20047;-26
2023/06/25 02:41:38;;;;;;;24.67;15.75;;;15.50;99.90;;;;;;5134679;27;20043;-26
2023/06/25 02:44:04;;;;;;;21.20;16.20;;;15.50;99.90;;;;;;5134562;28;20051;-27
2023/06/25 02:46:30;;;;;;;20.48;15.48;;;15.50;99.90;;;;;;5135474;28;20047;-26
2023/06/25 02:48:55;;;;;;;22.02;14.90;;;15.50;99.90;;;;;;5134167;28;20051;-26
2023/06/25 02:51:21;;;;;;;24.13;16.92;;;15.50;99.90;;;;;;5134611;28;20050;-26
2023/06/25 02:53:47;;;;;;;24.05;15.88;;;15.50;99.90;;;;;;5115871;28;20055;-27
2023/06/25 02:56:12;;;;;;;23.58;16.27;;;15.60;99.90;;;;;;5134875;28;20508;-26
2023/06/25 02:58:38;;;;;;;20.80;14.43;;;15.50;99.90;;;;;;5134497;28;20039;-26
2023/06/25 03:01:04;;;;;;;21.70;15.27;;;15.50;99.90;;;;;;5116419;28;20126;-26
2023/06/25 03:03:29;;;;;;;21.58;15.40;;;15.60;99.90;;;;;;5134804;28;20043;-26
2023/06/25 03:05:55;;;;;;;22.40;15.77;;;15.50;99.90;;;;;;5116136;28;20488;-26
2023/06/25 03:08:21;;;;;;;18.98;14.30;;;15.60;99.90;;;;;;5116656;28;20044;-26
2023/06/25 03:10:47;;;;;;;25.75;15.13;;;15.60;99.90;;;;;;5134400;28;20047;-26
2023/06/25 03:13:13;;;;;;;21.17;14.27;;;15.50;99.90;;;;;;5135133;28;20133;-27
2023/06/25 03:15:39;;;;;;;19.77;13.90;;;15.50;99.90;;;;;;5116247;28;20043;-26
2023/06/25 03:18:04;;;;;;;23.75;16.23;;;15.60;99.90;;;;;;5116081;28;20130;-26
2023/06/25 03:20:30;;;;;;;22.92;15.90;;;15.50;99.90;;;;;;5116134;28;20175;-26
2023/06/25 03:22:56;;;;;;;22.48;14.45;;;15.60;99.90;;;;;;5136507;27;20043;-26
2023/06/25 03:25:24;;;;;;;22.52;14.90;;;15.50;99.90;;;;;;5119928;27;20485;-26
2023/06/25 03:27:49;;;;;;;21.92;15.52;;;15.60;99.90;;;;;;5138029;27;20047;-26
2023/06/25 03:30:15;;;;;;;21.45;16.10;;;15.60;99.90;;;;;;5119928;27;20121;-26
2023/06/25 03:32:44;;;;;;;18.63;13.60;;;15.60;99.90;;;;;;5119848;27;20058;-26
2023/06/25 03:35:10;;;;;;;21.70;14.02;;;15.60;99.90;;;;;;5138613;27;20063;-26
2023/06/25 03:37:35;;;;;;;23.67;12.95;;;15.50;99.90;;;;;;5138000;27;20039;-26
2023/06/25 03:40:01;;;;;;;18.55;12.90;;;15.50;99.90;;;;;;5138224;27;20414;-26
2023/06/25 03:42:27;;;;;;;18.33;12.18;;;15.60;99.90;;;;;;5119842;27;20389;-26
2023/06/25 03:44:54;;;;;;;21.45;14.30;;;15.60;99.90;;;;;;5119994;27;20451;-26
2023/06/25 03:47:20;;;;;;;17.48;11.05;;;15.60;99.90;;;;;;5137759;27;20078;-26
2023/06/25 03:49:46;;;;;;;13.02;8.73;;;15.50;99.90;;;;;;5137745;27;20078;-26
2023/06/25 03:52:12;;;;;;;9.55;7.60;;;15.40;99.90;;;;;;5138079;27;20430;-26
2023/06/25 03:54:37;;;;;;;12.18;7.50;;;15.10;99.90;;;;;;5137641;27;20138;-26
2023/06/25 03:57:04;;;;;;;11.20;8.68;;;14.90;99.90;;;;;;5137635;27;20070;-26
2023/06/25 03:59:30;;;;;;;15.45;9.65;;;14.80;99.90;;;;;;5137591;27;20126;-27
2023/06/25 04:01:55;;;;;;;13.57;10.35;;;14.70;99.90;;;;;;5119733;27;20090;-26
2023/06/25 04:04:21;;;;;;;11.75;9.85;;;14.70;99.90;;;;;;5119201;27;20047;-26
2023/06/25 04:06:47;;;;;;;15.27;10.07;;;14.70;99.90;;;;;;5137396;27;20126;-26
2023/06/25 04:09:12;;;;;;;16.05;11.60;;;14.70;99.90;;;;;;5118926;27;20047;-26
2023/06/25 04:11:38;;;;;;;18.60;13.85;;;14.80;99.90;;;;;;5138223;27;20047;-26
2023/06/25 04:14:04;;;;;;;21.60;13.80;;;14.90;99.90;;;;;;5137296;27;20043;-26
2023/06/25 04:16:29;;;;;;;22.50;15.38;;;15.10;99.90;;;;;;5137257;27;20500;-26
2023/06/25 04:18:55;;;;;;;27.17;15.50;;;15.30;99.90;;;;;;5137190;27;20043;-26
2023/06/25 04:21:21;;;;;;;23.02;15.40;;;15.40;99.90;;;;;;5118883;27;20042;-26
2023/06/25 04:23:46;;;;;;;25.75;15.63;;;15.60;99.90;;;;;;5102039;27;20493;-26
2023/06/25 04:26:12;;;;;;;20.20;15.07;;;15.70;99.90;;;;;;5119111;27;20047;-26
2023/06/25 04:28:38;;;;;;;28.88;15.07;;;15.90;99.90;;;;;;5101581;27;20126;-26
2023/06/25 04:31:04;;;;;;;22.35;14.95;;;16.00;99.90;;;;;;5119703;27;20442;-27
2023/06/25 04:33:29;;;;;;;20.77;15.20;;;16.20;99.90;;;;;;5136561;27;20050;-26
2023/06/25 04:35:55;;;;;;;19.35;13.52;;;16.30;99.90;;;;;;5118762;27;20485;-26
2023/06/25 04:38:21;;;;;;;19.90;14.40;;;16.50;99.90;;;;;;5136515;27;20050;-26
2023/06/25 04:40:47;;;;;;;18.35;12.90;;;16.60;99.90;;;;;;5118651;27;20090;-26
2023/06/25 04:43:12;;;;;;;19.60;12.73;;;16.70;99.90;;;;;;5137008;27;20043;-26
2023/06/25 04:45:38;;;;;;;17.20;12.65;;;16.80;99.90;;;;;;5118497;27;20465;-27
2023/06/25 04:48:04;;;;;;;18.20;12.20;;;16.90;99.90;;;;;;5101891;27;20035;-26
2023/06/25 04:50:30;;;;;;;18.48;13.30;;;16.90;99.90;;;;;;5118488;27;20054;-26
2023/06/25 04:52:57;;;;;;;20.05;13.05;;;17.10;99.90;;;;;;5136027;27;20051;-26
2023/06/25 04:55:23;;;;;;;16.92;12.63;;;17.20;99.90;;;;;;5118361;27;20050;-26
2023/06/25 04:57:48;;;;;;;15.30;12.48;;;17.30;99.90;;;;;;5136147;27;20043;-26
2023/06/25 05:00:15;;;;;;;17.65;13.20;;;17.40;99.90;;;;;;5118344;27;20043;-26
2023/06/25 05:02:43;;;;;;;15.52;11.73;;;17.60;99.90;;;;;;5136340;27;20496;-26
2023/06/25 05:05:08;;;;;;;17.52;11.77;;;17.80;99.90;;;;;;5118872;27;20046;-27
2023/06/25 05:07:36;;;;;;;16.55;11.60;;;17.90;99.90;;;;;;5118539;27;20384;-26
2023/06/25 05:10:02;;;;;;;15.98;11.90;;;18.00;99.90;;;;;;5118512;27;20557;-26
2023/06/25 05:12:28;;;;;;;12.60;10.45;;;18.30;99.90;;;;;;5118323;27;20047;-26
2023/06/25 05:14:53;;;;;;;16.98;10.48;;;18.50;99.90;;;;;;5118035;27;20043;-26
2023/06/25 05:17:21;;;;;;;16.95;10.02;;;18.70;99.90;;;;;;5136059;27;20092;-27
2023/06/25 05:19:50;;;;;;;13.95;10.45;;;19.10;99.90;;;;;;5136059;27;20047;-26
2023/06/25 05:22:15;;;;;;;13.98;10.18;;;19.50;99.90;;;;;;5135985;27;20111;-26
2023/06/25 05:24:41;;;;;;;14.13;10.10;;;20.00;99.90;;;;;;5117851;27;20429;-26
2023/06/25 05:27:07;;;;;;;13.30;9.73;;;20.60;99.90;;;;;;5136634;27;20050;-26
2023/06/25 05:29:32;;;;;;;13.85;9.65;;;21.10;99.90;;;;;;5117499;27;20054;-27
2023/06/25 05:31:58;;;;;;;12.95;9.43;;;21.10;99.90;;;;;;5100955;27;20122;-27
2023/06/25 05:34:24;;;;;;;15.60;9.35;;;21.30;99.90;;;;;;5118146;27;20055;-26
2023/06/25 05:36:50;;;;;;;14.30;9.98;;;21.80;38.20;;;;;;5136515;27;20055;-27
2023/06/25 05:39:16;;;;;;;10.55;9.35;;;22.50;99.90;;;;;;5136493;27;20134;-27
2023/06/25 05:41:41;;;;;;;10.40;8.20;;;23.10;47.90;;;;;;5135599;27;20043;-27
2023/06/25 05:44:07;;;;;;;12.70;8.73;;;23.70;99.90;;;;;;5135313;27;20047;-27
2023/06/25 05:46:33;;;;;;;10.23;7.60;;;24.00;99.90;;;;;;5135011;27;20551;-27
2023/06/25 05:48:58;;;;;;;11.40;8.45;;;24.50;33.70;;;;;;5135356;27;20163;-28
2023/06/25 05:51:24;;;;;;;11.50;8.05;;;24.60;99.90;;;;;;5100656;27;20079;-27
2023/06/25 05:53:54;;;;;;;7.50;6.70;;;24.90;99.90;;;;;;5136079;27;20065;-28
2023/06/25 05:56:19;;;;;;;9.75;6.38;;;25.00;1.00;;;;;;5116926;27;20047;-27
2023/06/25 05:58:45;;;;;;;9.60;7.10;;;25.30;99.90;;;;;;5136098;27;20042;-28
2023/06/25 06:01:11;;;;;;;6.68;5.90;;;25.60;99.90;;;;;;5135237;27;20389;-27
2023/06/25 06:03:37;;;;;;;6.90;5.63;;;25.80;94.90;;;;;;5135177;27;20480;-27
2023/06/25 06:06:03;;;;;;;7.95;4.88;;;26.00;1.00;;;;;;5117035;27;20055;-27
2023/06/25 06:08:28;;;;;;;5.35;4.57;;;26.20;99.90;;;;;;5135015;27;20045;-27
2023/06/25 06:10:54;;;;;;;8.52;4.88;;;26.10;99.90;;;;;;5116849;27;20045;-29
2023/06/25 06:13:20;;;;;;;5.95;4.45;;;26.20;99.90;;;;;;5135011;27;20043;-28
2023/06/25 06:15:46;;;;;;;8.30;4.47;;;26.50;99.90;;;;;;5135251;27;20039;-28
2023/06/25 06:18:11;;;;;;;7.35;4.55;;;26.80;30.10;;;;;;5116888;27;20477;-28
2023/06/25 06:20:37;;;;;;;5.18;4.68;;;26.90;1.00;;;;;;5134946;27;20066;-27
2023/06/25 06:23:03;;;;;;;6.45;4.40;;;27.10;1.00;;;;;;5134858;27;20050;-27
2023/06/25 06:25:29;;;;;;;7.18;4.95;;;27.10;99.90;;;;;;5116664;27;20121;-28
2023/06/25 06:27:55;;;;;;;8.43;5.00;;;27.30;99.90;;;;;;5116637;27;20103;-28
2023/06/25 06:30:23;;;;;;;7.60;5.75;;;27.40;99.90;;;;;;5100296;27;20082;-28
2023/06/25 06:32:49;;;;;;;8.60;4.97;;;27.30;99.90;;;;;;5134753;27;20065;-28
2023/06/25 06:35:15;;;;;;;5.95;5.35;;;27.40;99.90;;;;;;5116422;27;20539;-28
2023/06/25 06:37:43;;;;;;;9.20;7.25;;;27.50;99.90;;;;;;5134711;27;20408;-29
2023/06/25 06:40:09;;;;;;;7.38;5.82;;;27.40;99.90;;;;;;5135280;27;20047;-28
2023/06/25 06:42:37;;;;;;;7.65;5.93;;;27.60;99.90;;;;;;5135229;27;20046;-27
2023/06/25 06:45:03;;;;;;;8.50;5.80;;;27.70;99.90;;;;;;5115972;28;20488;-28
2023/06/25 06:47:29;;;;;;;8.65;6.00;;;27.70;99.90;;;;;;5134751;28;20503;-28
2023/06/25 06:49:54;;;;;;;8.98;5.68;;;27.70;99.90;;;;;;5134541;28;20047;-28
2023/06/25 06:52:25;;;;;;;8.40;5.78;;;27.90;99.90;;;;;;5116706;28;20090;-28
2023/06/25 06:54:51;;;;;;;8.82;6.18;;;28.20;99.90;;;;;;5134455;28;20057;-28
2023/06/25 06:57:17;;;;;;;9.50;6.32;;;28.20;96.80;;;;;;5137806;27;20049;-28
2023/06/25 06:59:46;;;;;;;9.98;6.68;;;28.10;95.00;;;;;;5138776;27;20051;-28
2023/06/25 07:02:12;;;;;;;10.25;6.95;;;28.20;67.60;;;;;;5109099;28;20048;-27
2023/06/25 07:04:38;;;;;;;11.85;6.43;;;28.30;52.90;;;;;;5137478;27;20568;-26
2023/06/25 07:07:05;;;;;;;7.65;6.15;;;28.30;69.50;;;;;;5136183;27;20051;-27
2023/06/25 07:09:31;;;;;;;8.95;6.90;;;28.60;83.50;;;;;;5118717;27;20229;-27
2023/06/25 07:11:56;;;;;;;9.35;6.78;;;28.70;58.20;;;;;;5137837;27;20039;-27
2023/06/25 07:14:22;;;;;;;9.50;7.07;;;28.80;28.60;;;;;;5138522;27;20103;-28
2023/06/25 07:16:48;;;;;;;8.27;6.90;;;28.90;25.60;;;;;;5138990;27;20469;-28
2023/06/25 07:19:14;;;;;;;7.72;6.32;;;29.10;11.60;;;;;;5137185;27;20108;-28
2023/06/25 07:21:40;;;;;;;9.38;7.10;;;29.10;1.00;;;;;;5131402;27;20537;-27
2023/06/25 07:24:06;;;;;;;12.50;7.07;;;28.90;1.00;;;;;;5137444;27;20039;-28
2023/06/25 07:26:31;;;;;;;9.00;6.85;;;29.30;5.50;;;;;;5118347;27;20087;-28
2023/06/25 07:28:57;;;;;;;7.45;6.63;;;29.50;1.00;;;;;;5102812;27;20077;-28
2023/06/25 07:31:23;;;;;;;11.07;6.88;;;29.40;2.80;;;;;;5138326;27;20419;-28
2023/06/25 07:33:48;;;;;;;7.50;6.80;;;29.70;1.00;;;;;;5138097;27;20473;-28
2023/06/25 07:36:14;;;;;;;9.73;7.47;;;29.60;1.00;;;;;;5118847;27;20050;-28
2023/06/25 07:38:40;;;;;;;10.13;7.75;;;29.50;1.00;;;;;;5138580;27;20126;-27
2023/06/25 07:41:06;;;;;;;8.70;7.13;;;29.30;1.00;;;;;;5119816;27;20078;-28
2023/06/25 07:43:32;;;;;;;9.90;7.15;;;29.30;1.00;;;;;;5138123;27;20511;-28
2023/06/25 07:45:57;;;;;;;11.25;6.47;;;29.50;1.00;;;;;;5137115;27;20043;-28
2023/06/25 07:48:23;;;;;;;9.15;7.40;;;29.90;1.00;;;;;;5137710;27;20086;-28
2023/06/25 07:50:51;;;;;;;10.57;6.68;;;30.30;1.00;;;;;;5128508;27;20043;-28
2023/06/25 07:53:17;;;;;;;9.43;6.88;;;30.40;1.00;;;;;;5098710;28;20064;-28
2023/06/25 07:55:44;;;;;;;8.27;6.85;;;30.40;1.00;;;;;;5117108;28;20052;-28
2023/06/25 07:58:11;;;;;;;7.47;6.68;;;30.50;1.00;;;;;;5117650;27;20040;-26
2023/06/25 08:00:36;;;;;;;8.60;7.18;;;30.70;1.00;;;;;;5101392;27;20078;-28
2023/06/25 08:03:02;;;;;;;8.25;6.30;;;30.70;1.00;;;;;;5119097;27;20078;-28
2023/06/25 08:05:28;;;;;;;7.22;6.53;;;30.80;1.00;;;;;;5136626;27;20066;-29
2023/06/25 08:07:56;;;;;;;7.68;7.00;;;31.10;1.00;;;;;;5117126;27;20489;-28
2023/06/25 08:10:23;;;;;;;7.90;7.20;;;31.00;1.00;;;;;;5119274;27;20062;-28
2023/06/25 08:12:49;;;;;;;10.18;7.50;;;31.30;1.00;;;;;;5119531;27;20058;-29
2023/06/25 08:15:15;;;;;;;9.13;7.25;;;31.20;1.00;;;;;;5137269;27;20043;-28
2023/06/25 08:17:41;;;;;;;10.13;6.30;;;31.30;1.00;;;;;;5137237;27;20484;-28
2023/06/25 08:20:07;;;;;;;8.50;7.30;;;31.60;1.00;;;;;;5137456;27;20050;-28
2023/06/25 08:22:33;;;;;;;7.45;6.70;;;31.40;99.90;;;;;;5136830;27;20513;-28
2023/06/25 08:24:59;;;;;;;8.05;6.57;;;31.60;99.90;;;;;;5137158;27;20051;-28
2023/06/25 08:27:25;;;;;;;7.93;6.95;;;31.70;99.90;;;;;;5137730;27;20100;-28
2023/06/25 08:29:50;;;;;;;8.02;6.82;;;31.60;99.90;;;;;;5137618;27;20493;-28
2023/06/25 08:32:16;;;;;;;11.93;8.10;;;31.80;99.90;;;;;;5136969;27;20039;-28
2023/06/25 08:34:42;;;;;;;8.43;7.13;;;31.50;99.90;;;;;;5136907;27;20047;-28
2023/06/25 08:37:07;;;;;;;9.02;7.60;;;31.10;99.90;;;;;;5137204;27;20047;-28
2023/06/25 08:39:33;;;;;;;9.25;7.00;;;31.50;99.90;;;;;;5136868;27;20043;-28
2023/06/25 08:41:59;;;;;;;7.20;6.50;;;31.80;99.90;;;;;;5137519;27;20059;-28
2023/06/25 08:44:25;;;;;;;8.38;6.90;;;31.90;99.90;;;;;;5136998;27;20059;-28
2023/06/25 08:46:54;;;;;;;7.60;6.28;;;32.20;99.90;;;;;;5119505;27;20507;-28
2023/06/25 08:49:23;;;;;;;6.93;5.97;;;32.50;99.90;;;;;;5137184;27;20055;-28
2023/06/25 08:51:55;;;;;;;8.82;6.43;;;32.30;99.90;;;;;;5136578;27;20519;-28
2023/06/25 08:54:21;;;;;;;7.72;6.45;;;32.60;99.90;;;;;;5118707;27;20069;-28
2023/06/25 08:56:47;;;;;;;8.38;6.57;;;32.40;99.90;;;;;;5137327;27;20462;-28
2023/06/25 08:59:13;;;;;;;8.80;6.53;;;32.60;99.90;;;;;;5118584;27;20442;-28
2023/06/25 09:01:38;;;;;;;7.57;5.38;;;32.80;99.90;;;;;;5118140;27;20043;-28
2023/06/25 09:04:04;;;;;;;7.78;5.57;;;33.20;99.90;;;;;;5136148;27;20125;-28
2023/06/25 09:06:39;;;;;;;6.97;5.93;;;33.30;99.90;;;;;;5117696;27;20043;-28
2023/06/25 09:09:05;;;;;;;6.75;6.05;;;33.50;99.90;;;;;;5136071;27;20039;-28
2023/06/25 09:11:31;;;;;;;6.97;5.53;;;33.60;99.90;;;;;;5117709;27;20070;-28
2023/06/25 09:13:58;;;;;;;8.02;5.00;;;33.60;99.90;;;;;;5135934;27;20044;-28
2023/06/25 09:16:26;;;;;;;6.63;5.50;;;33.60;99.90;;;;;;5134982;27;20047;-27
2023/06/25 09:18:51;;;;;;;5.28;4.60;;;33.80;99.90;;;;;;5133868;27;20488;-29
2023/06/25 09:21:17;;;;;;;8.20;5.13;;;33.40;99.90;;;;;;5130835;27;20168;-29
2023/06/25 09:23:50;;;;;;;8.43;4.90;;;33.70;99.90;;;;;;5116418;27;20496;-28
2023/06/25 09:26:16;;;;;;;8.00;5.05;;;33.20;75.80;;;;;;5136135;27;20400;-28
2023/06/25 09:28:51;;;;;;;5.75;4.47;;;33.10;88.90;;;;;;5133506;27;20036;-28
2023/06/25 09:31:18;;;;;;;7.03;4.88;;;33.40;72.20;;;;;;5106850;27;20054;-29
2023/06/25 09:33:50;;;;;;;4.63;3.95;;;33.70;80.10;;;;;;5100649;27;20134;-28
2023/06/25 09:36:17;;;;;;;6.80;4.50;;;33.80;63.40;;;;;;5113651;27;20035;-30
2023/06/25 09:38:46;;;;;;;4.20;3.80;;;34.10;90.10;;;;;;5134906;27;20533;-29
2023/06/25 09:41:15;;;;;;;5.00;4.50;;;34.00;33.10;;;;;;5135319;27;20062;-29
2023/06/25 09:43:45;;;;;;;7.70;4.95;;;34.50;31.90;;;;;;5117694;27;20051;-29
2023/06/25 09:46:12;;;;;;;5.72;4.30;;;34.90;63.80;;;;;;5115556;27;20537;-28
2023/06/25 09:48:41;;;;;;;6.25;4.15;;;34.90;41.40;;;;;;5115762;27;20036;-29
2023/06/25 09:51:09;;;;;;;6.50;4.47;;;34.70;27.00;;;;;;5134419;27;20481;-29
2023/06/25 09:53:37;;;;;;;9.70;4.80;;;34.60;26.30;;;;;;5132467;27;20074;-28
2023/06/25 09:56:06;;;;;;;9.30;4.63;;;34.30;3.50;;;;;;5135040;27;20054;-28
2023/06/25 09:58:33;;;;;;;5.72;4.13;;;34.00;10.90;;;;;;5118365;27;20049;-28
2023/06/25 10:00:58;;;;;;;4.20;3.53;;;34.30;9.50;;;;;;5129288;27;20054;-28
2023/06/25 10:03:24;;;;;;;7.32;4.95;;;34.30;1.00;;;;;;5133960;27;20051;-29
2023/06/25 10:05:51;;;;;;;5.63;4.07;;;34.00;10.00;;;;;;5132483;27;20035;-29
2023/06/25 10:08:19;;;;;;;7.47;5.45;;;34.00;12.70;;;;;;5134273;27;20051;-27
2023/06/25 10:10:59;;;;;;;6.75;4.55;;;33.70;1.00;;;;;;5134946;27;20047;-29
2023/06/25 10:13:25;;;;;;;7.38;4.53;;;33.70;21.80;;;;;;5135404;27;20423;-29
2023/06/25 10:15:58;;;;;;;6.28;4.45;;;33.90;36.90;;;;;;5133901;27;20523;-29
2023/06/25 10:18:24;;;;;;;6.80;4.30;;;34.10;18.60;;;;;;5115963;27;20058;-30
2023/06/25 10:20:50;;;;;;;5.28;4.10;;;33.80;15.30;;;;;;5116634;27;20051;-29
2023/06/25 10:23:22;;;;;;;4.53;3.55;;;33.80;33.60;;;;;;5133134;27;20046;-29
2023/06/25 10:25:58;;;;;;;5.38;3.88;;;33.70;30.80;;;;;;5133206;27;20054;-29
2023/06/25 10:28:37;;;;;;;4.43;4.03;;;33.80;31.50;;;;;;5132374;27;20038;-29
2023/06/25 10:31:13;;;;;;;4.53;3.80;;;33.90;35.80;;;;;;5110524;27;20043;-28
2023/06/25 10:33:39;;;;;;;7.38;3.90;;;34.40;55.30;;;;;;5123940;27;20051;-28
2023/06/25 10:36:08;;;;;;;4.20;3.80;;;34.80;94.00;;;;;;5114297;28;20039;-29
2023/06/25 10:38:34;;;;;;;4.80;3.97;;;35.00;91.00;;;;;;5122324;27;20043;-28
2023/06/25 10:41:00;;;;;;;4.57;3.92;;;35.10;99.90;;;;;;5133313;27;20046;-29
2023/06/25 10:43:25;;;;;;;4.32;3.83;;;35.20;99.90;;;;;;5096258;27;20389;-30
2023/06/25 10:45:53;;;;;;;5.63;4.10;;;34.80;99.90;;;;;;5133082;28;20126;-29
2023/06/25 10:48:22;;;;;;;5.97;3.67;;;34.50;99.90;;;;;;5116099;28;20126;-29
2023/06/25 10:50:50;;;;;;;5.40;3.75;;;34.50;99.90;;;;;;5116305;28;20046;-29
2023/06/25 10:53:17;;;;;;;4.53;3.67;;;34.90;99.90;;;;;;5134311;28;20086;-29
2023/06/25 10:55:48;;;;;;;9.27;3.53;;;35.10;99.90;;;;;;5116073;28;20079;-28
2023/06/25 10:58:19;;;;;;;4.55;3.38;;;35.20;99.90;;;;;;5135269;28;20045;-29
2023/06/25 11:00:45;;;;;;;5.60;3.47;;;35.60;99.90;;;;;;5134414;28;20047;-29
2023/06/25 11:03:12;;;;;;;4.80;3.25;;;35.60;99.90;;;;;;5100928;28;20082;-30
2023/06/25 11:05:39;;;;;;;3.42;3.13;;;35.80;99.90;;;;;;5132807;28;20448;-31
2023/06/25 11:08:07;;;;;;;3.72;3.35;;;35.70;99.90;;;;;;5134392;28;20046;-30
2023/06/25 11:10:34;;;;;;;4.07;3.33;;;35.80;99.90;;;;;;5134312;28;20051;-29
2023/06/25 11:13:00;;;;;;;5.28;3.90;;;35.90;99.90;;;;;;5134387;28;20051;-29
2023/06/25 11:15:33;;;;;;;4.18;3.03;;;36.00;99.90;;;;;;5134238;28;20099;-29
2023/06/25 11:18:00;;;;;;;5.10;3.10;;;36.30;99.90;;;;;;5129842;28;20035;-27
2023/06/25 11:20:27;;;;;;;3.78;3.30;;;36.20;99.90;;;;;;5132737;28;20043;-28
2023/06/25 11:22:58;;;;;;;4.07;3.30;;;36.10;99.90;;;;;;5134946;28;20092;-30
2023/06/25 11:25:24;;;;;;;4.28;3.17;;;36.00;99.90;;;;;;5134199;28;20043;-30
2023/06/25 11:28:07;;;;;;;3.40;3.10;;;35.50;99.90;;;;;;5133466;28;20043;-29
2023/06/25 11:30:33;;;;;;;3.60;3.30;;;35.60;99.90;;;;;;5132938;28;20051;-29
2023/06/25 11:33:15;;;;;;;4.35;3.30;;;35.90;99.90;;;;;;5133719;28;20043;-29
2023/06/25 11:35:41;;;;;;;;;;;36.00;99.90;;;;;;5134443;28;20046;-29
2023/06/25 11:38:07;;;;;;;4.40;2.97;;;36.30;99.90;;;;;;5134287;28;20018;-29
2023/06/25 11:40:38;;;;;;;4.93;3.05;;;36.40;99.90;;;;;;5115908;28;20050;-30
2023/06/25 11:43:04;;;;;;;4.20;3.38;;;36.00;99.90;;;;;;5117268;27;20057;-29
2023/06/25 11:45:43;;;;;;;3.08;2.78;;;36.30;99.90;;;;;;5138618;27;20078;-29
2023/06/25 11:48:16;;;;;;;3.70;3.38;;;36.80;99.90;;;;;;5119307;27;20043;-29
2023/06/25 11:50:43;;;;;;;5.43;3.13;;;37.30;99.90;;;;;;5138259;27;20083;-29
2023/06/25 11:53:09;;;;;;;4.90;3.03;;;37.00;99.90;;;;;;5133637;27;20068;-29
2023/06/25 11:55:35;;;;;;;4.78;2.92;;;37.00;99.90;;;;;;5135078;27;21291;-29
2023/06/25 11:58:00;;;;;;;4.25;2.67;;;36.90;99.90;;;;;;5116909;27;20118;-30
2023/06/25 12:00:26;;;;;;;3.65;2.50;;;36.80;99.90;;;;;;5135148;27;20126;-29
2023/06/25 12:02:52;;;;;;;3.13;2.67;;;37.00;99.90;;;;;;5135868;27;20043;-29
2023/06/25 12:05:18;;;;;;;3.63;2.72;;;37.10;99.90;;;;;;5116825;27;20473;-28
2023/06/25 12:07:44;;;;;;;4.63;2.42;;;36.80;99.90;;;;;;5137879;27;20477;-29
2023/06/25 12:10:10;;;;;;;3.10;2.70;;;36.40;99.90;;;;;;5137477;27;20438;-30
2023/06/25 12:12:36;;;;;;;4.10;2.53;;;36.80;99.90;;;;;;5135772;27;20408;-29
2023/06/25 12:15:02;;;;;;;3.60;2.67;;;36.40;99.90;;;;;;5134748;27;20053;-29
2023/06/25 12:17:28;;;;;;;5.72;2.55;;;36.70;99.90;;;;;;5132547;27;20039;-30
2023/06/25 12:19:54;;;;;;;3.30;2.78;;;36.20;99.90;;;;;;5118850;27;20050;-30
2023/06/25 12:22:20;;;;;;;2.75;2.50;;;36.00;99.90;;;;;;5100591;27;20039;-29
2023/06/25 12:24:45;;;;;;;3.92;2.60;;;35.50;99.90;;;;;;5099064;27;20097;-29
2023/06/25 12:27:11;;;;;;;3.83;2.55;;;35.00;99.90;;;;;;5129277;27;20108;-29
2023/06/25 12:29:37;;;;;;;5.63;3.03;;;35.20;99.90;;;;;;5133563;27;20039;-29
2023/06/25 12:32:03;;;;;;;3.60;2.65;;;35.20;99.90;;;;;;5133396;27;20388;-28
2023/06/25 12:34:29;;;;;;;3.20;2.63;;;35.60;99.90;;;;;;5134468;27;20493;-29
2023/06/25 12:36:54;;;;;;;3.28;2.40;;;35.00;99.90;;;;;;5134797;27;20176;-30
2023/06/25 12:39:20;;;;;;;2.50;2.10;;;34.90;99.90;;;;;;5129684;27;20186;-29